Sea Lion — WDG3865 — position and weather

sailwx.info

Track history (hours):
 
Tides and Currents Weather Stations Pressure Air Temp Water Temp Dewpoint Dewpoint Depression Visibility Wind Speed Wind Dir Waves Ship Positions

Sea Lion

Owner: Garber Bros., Inc., Morgan City, LA. More information available from US FCC via Universal Licensing System and Coast Guard Vessel Documentation Center.

Last reported at 2017-Dec-17 00:21 UTC. Time now 2017-Dec-18 12:38 UTC.
Position N 29°33' W 090°55'.

Length 25 m; draft 3 m.

Type: Towing. MMSI: 367530470.

Date/timePositionNaut miles runAvg speedWind from/ knotsBaromVisibWave heightAir tempDewpointWater temp
2017-Dec-17 00:21N 29°33' W 090°55'4 8.3
2017-Dec-16 23:53N 29°32' W 090°50'3 8.5
2017-Dec-16 23:30N 29°32' W 090°47'3 6.7
2017-Dec-16 23:00N 29°34' W 090°43'3 5.3
2017-Dec-16 22:30N 29°37' W 090°43'4 6.9
2017-Dec-16 21:59N 29°35' W 090°39'3 6.9
2017-Dec-16 21:31N 29°35' W 090°35'4 7.9
2017-Dec-16 21:00N 29°34' W 090°30'0 0.0
2017-Dec-16 02:43N 29°34' W 090°31'2 8.0
2017-Dec-16 02:30N 29°34' W 090°32'3 6.7
2017-Dec-16 02:01N 29°35' W 090°36'4 7.4
2017-Dec-16 01:31N 29°36' W 090°40'2 4.6
2017-Dec-16 01:01N 29°36' W 090°43'2 3.3
2017-Dec-16 00:30N 29°34' W 090°43'1 2.6
2017-Dec-16 00:00N 29°33' W 090°42'0 0.0
2017-Dec-15 23:31N 29°33' W 090°42'0 0.0
2017-Dec-15 23:01N 29°33' W 090°42'0 0.0
2017-Dec-15 22:31N 29°33' W 090°42'0 0.0
2017-Dec-15 22:00N 29°33' W 090°42'0 0.0
2017-Dec-15 21:31N 29°33' W 090°42'0 0.0
2017-Dec-15 21:00N 29°33' W 090°42'0 0.0
2017-Dec-15 20:31N 29°33' W 090°42'0 0.0
2017-Dec-15 20:00N 29°33' W 090°42'0 0.0
2017-Dec-15 19:30N 29°33' W 090°42'0 0.0
2017-Dec-15 19:01N 29°33' W 090°42'0 0.0
2017-Dec-15 18:31N 29°33' W 090°42'0 0.0
2017-Dec-15 18:00N 29°33' W 090°42'0 0.0
2017-Dec-15 17:30N 29°33' W 090°42'0 0.0
2017-Dec-15 17:00N 29°33' W 090°42'0 0.0
2017-Dec-15 16:31N 29°33' W 090°42'0 0.0
2017-Dec-15 16:01N 29°33' W 090°42'0 0.0
2017-Dec-15 15:30N 29°33' W 090°42'0 0.0
2017-Dec-15 15:00N 29°33' W 090°42'0 0.0
2017-Dec-15 14:31N 29°33' W 090°42'0 0.0
2017-Dec-15 14:00N 29°33' W 090°42'0 0.0
2017-Dec-15 13:30N 29°33' W 090°42'0 0.0
2017-Dec-15 13:00N 29°33' W 090°42'0 0.0
2017-Dec-15 12:31N 29°33' W 090°42'0 0.0
2017-Dec-15 12:00N 29°33' W 090°42'0 0.0
2017-Dec-15 11:30N 29°33' W 090°42'0 0.0
2017-Dec-15 11:00N 29°33' W 090°42'0 0.0
2017-Dec-15 10:30N 29°33' W 090°42'0 0.0
2017-Dec-15 10:00N 29°33' W 090°42'0 0.0
2017-Dec-15 09:30N 29°33' W 090°42'0 0.1
2017-Dec-15 09:00N 29°33' W 090°42'2 3.6
2017-Dec-15 08:30N 29°34' W 090°44'3 6.8
2017-Dec-15 08:00N 29°32' W 090°47'4 7.8
2017-Dec-15 07:29N 29°32' W 090°52'37 6.8
2017-Dec-15 02:07N 29°42' W 091°32'11 7.3
2017-Dec-15 00:33N 29°46' W 091°45'71 7.0
2017-Dec-14 14:25N 29°56' W 093°05'3 7.2
2017-Dec-14 14:00N 29°56' W 093°09'3 6.5
2017-Dec-14 13:29N 29°58' W 093°12'3 6.6
2017-Dec-14 13:00N 30°01' W 093°14'3 6.4
2017-Dec-14 12:30N 30°04' W 093°16'2 4.5
2017-Dec-14 12:00N 30°05' W 093°18'0 0.6
2017-Dec-14 11:30N 30°05' W 093°18'0 1.0
2017-Dec-14 11:00N 30°06' W 093°18'0 0.1
2017-Dec-14 10:30N 30°06' W 093°18'0 0.2
2017-Dec-14 09:48N 30°06' W 093°18'0 0.0
2017-Dec-14 09:30N 30°06' W 093°18'0 0.0
2017-Dec-14 09:00N 30°06' W 093°18'0 0.0
2017-Dec-14 08:30N 30°06' W 093°18'0 0.0
2017-Dec-14 08:00N 30°06' W 093°18'0 0.0
2017-Dec-14 07:30N 30°06' W 093°18'2 3.2
2017-Dec-14 06:59N 30°05' W 093°20'2 3.6
2017-Dec-14 06:30N 30°04' W 093°21'3 6.2
2017-Dec-14 06:00N 30°04' W 093°25'3 7.0
2017-Dec-14 05:30N 30°04' W 093°29'3 7.0
2017-Dec-14 05:00N 30°04' W 093°33'4 7.0
2017-Dec-14 04:30N 30°04' W 093°37'8 6.4
2017-Dec-14 03:15N 30°01' W 093°46'66 5.9
2017-Dec-13 16:11N 29°31' W 094°53'1 7.4
2017-Dec-13 15:59N 29°32' W 094°54'4 7.2
2017-Dec-13 15:30N 29°35' W 094°56'4 7.1
2017-Dec-13 15:00N 29°38' W 094°58'3 5.5
2017-Dec-13 14:29N 29°41' W 094°59'0 0.0
2017-Dec-13 13:42N 29°41' W 094°59'0 0.0
2017-Dec-13 13:22N 29°41' W 094°59'0 0.0
2017-Dec-13 12:05N 29°41' W 094°59'0 0.0
2017-Dec-13 11:55N 29°41' W 094°59'0 0.0
2017-Dec-13 10:46N 29°41' W 094°59'2 6.8
2017-Dec-13 10:30N 29°39' W 094°58'5 8.5
2017-Dec-13 09:52N 29°34' W 094°56'4 0.9
2017-Dec-13 05:11N 29°31' W 094°53'1 5.4
2017-Dec-13 05:01N 29°32' W 094°54'3 5.4
2017-Dec-13 04:30N 29°34' W 094°55'3 5.2
2017-Dec-13 03:59N 29°36' W 094°57'3 5.3
2017-Dec-13 03:31N 29°39' W 094°58'3 5.2
2017-Dec-13 03:00N 29°41' W 094°59'1 0.7
2017-Dec-13 01:18N 29°42' W 094°60'0 0.0
2017-Dec-13 00:23N 29°42' W 094°60'0 0.0
2017-Dec-12 23:58N 29°42' W 094°60'0 0.1
2017-Dec-12 23:00N 29°42' W 094°60'0 0.1
2017-Dec-12 22:30N 29°42' W 094°60'0 0.0
2017-Dec-12 21:55N 29°42' W 094°60'0 0.0
2017-Dec-12 20:04N 29°42' W 094°60'0 0.1
2017-Dec-12 19:42N 29°42' W 094°60'0 0.0
2017-Dec-12 19:26N 29°42' W 094°60'0 1.0
2017-Dec-12 18:59N 29°42' W 095°00'0 0.1
2017-Dec-12 18:30N 29°42' W 095°00'0 0.0
2017-Dec-12 17:37N 29°42' W 095°00'0 0.0
2017-Dec-12 17:26N 29°42' W 095°00'0 0.0
2017-Dec-12 17:00N 29°42' W 095°00'1 1.1
2017-Dec-12 16:19N 29°42' W 094°60'1 2.6
2017-Dec-12 15:59N 29°41' W 094°59'0 0.0
2017-Dec-12 15:29N 29°41' W 094°59'0 0.0
2017-Dec-12 15:00N 29°41' W 094°59'1 0.3
2017-Dec-12 11:20N 29°42' W 094°60'0 0.0
2017-Dec-12 10:28N 29°42' W 094°60'0 0.0
2017-Dec-12 09:51N 29°42' W 094°60'0 0.0
2017-Dec-12 09:29N 29°42' W 094°60'0 0.0
2017-Dec-12 08:58N 29°42' W 094°60'0 0.0
2017-Dec-12 08:30N 29°42' W 094°60'0 0.0
2017-Dec-12 08:00N 29°42' W 094°60'0 0.0
2017-Dec-12 07:28N 29°42' W 094°60'0 0.5
2017-Dec-12 07:00N 29°42' W 095°00'2 0.3
2017-Dec-12 00:11N 29°42' W 095°03'0 0.5
2017-Dec-12 00:00N 29°42' W 095°03'3 3.5
2017-Dec-11 23:16N 29°42' W 094°60'0 0.0
2017-Dec-11 23:01N 29°42' W 094°60'0 0.1
2017-Dec-11 19:55N 29°42' W 095°00'0 0.0
2017-Dec-11 16:02N 29°42' W 095°00'0 0.3
2017-Dec-11 15:04N 29°42' W 095°00'0 0.3
2017-Dec-11 14:58N 29°42' W 094°60'0 0.1
2017-Dec-11 14:30N 29°42' W 094°60'0 0.1
2017-Dec-11 13:59N 29°42' W 095°00'0 0.0
2017-Dec-11 13:20N 29°42' W 094°60'0 0.0
2017-Dec-11 13:00N 29°42' W 094°60'0 0.0
2017-Dec-11 12:29N 29°42' W 094°60'0 0.7
2017-Dec-11 11:57N 29°42' W 095°00'0 0.0
2017-Dec-11 11:27N 29°42' W 095°00'0 0.0
2017-Dec-11 10:59N 29°42' W 095°00'0 0.0
2017-Dec-11 10:30N 29°42' W 095°00'0 0.0
2017-Dec-11 09:55N 29°42' W 095°00'0 0.0
2017-Dec-11 09:29N 29°42' W 095°00'0 0.0
2017-Dec-11 09:00N 29°42' W 095°00'0 0.0
2017-Dec-11 08:29N 29°42' W 095°00'0 0.0
2017-Dec-11 08:00N 29°42' W 095°00'0 0.0
2017-Dec-11 06:44N 29°42' W 095°00'0 0.0
2017-Dec-11 06:15N 29°42' W 095°00'0 0.0
2017-Dec-11 05:44N 29°42' W 095°00'0 0.0
2017-Dec-10 22:35N 29°42' W 095°00'0 4.8
2017-Dec-10 22:30N 29°42' W 094°60'1 1.9
2017-Dec-10 22:00N 29°41' W 094°59'3 6.1
2017-Dec-10 21:31N 29°38' W 094°58'0 1.0
2017-Dec-10 21:01N 29°38' W 094°58'1 1.4
2017-Dec-10 20:30N 29°38' W 094°58'3 6.7
2017-Dec-10 20:01N 29°41' W 094°59'1 0.5
2017-Dec-10 18:25N 29°42' W 094°60'0 0.0
2017-Dec-10 17:52N 29°42' W 094°60'0 0.0
2017-Dec-10 17:13N 29°42' W 094°60'0 0.0
2017-Dec-10 17:00N 29°42' W 094°60'0 0.0
2017-Dec-10 16:30N 29°42' W 094°60'0 0.0
2017-Dec-10 15:58N 29°42' W 094°60'0 0.0
2017-Dec-10 15:29N 29°42' W 094°60'0 0.0
2017-Dec-10 15:00N 29°42' W 094°60'1 0.9
2017-Dec-10 13:40N 29°41' W 094°59'0 0.0
2017-Dec-10 13:16N 29°41' W 094°59'0 0.0
2017-Dec-10 12:59N 29°41' W 094°59'1 2.5
2017-Dec-10 12:29N 29°42' W 094°60'0 0.1
2017-Dec-10 12:00N 29°42' W 094°60'0 0.0
2017-Dec-10 11:31N 29°42' W 094°60'0 0.0
2017-Dec-10 10:57N 29°42' W 094°60'0 0.0
2017-Dec-10 10:28N 29°42' W 094°60'0 0.0
2017-Dec-10 10:00N 29°42' W 094°60'0 0.0
2017-Dec-10 09:31N 29°42' W 094°60'0 0.0
2017-Dec-10 08:49N 29°42' W 094°60'0 0.0
2017-Dec-10 08:27N 29°42' W 094°60'0 0.0
2017-Dec-10 07:57N 29°42' W 094°60'0 0.0
2017-Dec-10 07:30N 29°42' W 094°60'0 0.0
2017-Dec-10 06:57N 29°42' W 094°60'0 0.0
2017-Dec-10 06:28N 29°42' W 094°60'0 0.0
2017-Dec-10 05:02N 29°42' W 094°60'0 0.0
2017-Dec-10 04:52N 29°42' W 094°60'0 0.0
2017-Dec-10 04:30N 29°42' W 094°60'0 0.0
2017-Dec-10 03:57N 29°42' W 094°60'0 0.0
2017-Dec-10 03:30N 29°42' W 094°60'0 0.0
2017-Dec-10 03:00N 29°42' W 094°60'0 0.0
2017-Dec-10 02:19N 29°42' W 094°60'0 0.0
2017-Dec-10 01:29N 29°42' W 094°60'0 0.0
2017-Dec-10 00:55N 29°42' W 094°60'0 0.0
2017-Dec-10 00:30N 29°42' W 094°60'0 0.0
2017-Dec-10 00:00N 29°42' W 094°60'0 0.0
2017-Dec-09 23:29N 29°42' W 094°60'0 0.5
2017-Dec-09 22:43N 29°42' W 095°00'0 1.3
2017-Dec-09 22:27N 29°42' W 094°60'0 0.0
2017-Dec-09 21:53N 29°42' W 094°60'0 0.0
2017-Dec-09 20:49N 29°42' W 094°60'0 0.0
2017-Dec-09 19:52N 29°42' W 094°60'0 0.0
2017-Dec-09 19:30N 29°42' W 094°60'0 0.0
2017-Dec-09 18:54N 29°42' W 094°60'0 0.0
2017-Dec-09 18:17N 29°42' W 094°60'0 0.0
2017-Dec-09 17:46N 29°42' W 094°60'0 0.0
2017-Dec-09 17:28N 29°42' W 094°60'0 0.0
2017-Dec-09 17:01N 29°42' W 094°60'0 0.0
2017-Dec-09 16:30N 29°42' W 094°60'0 0.0
2017-Dec-09 16:00N 29°42' W 094°60'0 0.0
2017-Dec-09 15:24N 29°42' W 094°60'0 0.0
2017-Dec-09 15:00N 29°42' W 094°60'0 0.0
2017-Dec-09 14:31N 29°42' W 094°60'0 0.0
2017-Dec-09 13:58N 29°42' W 094°60'0 0.0
2017-Dec-09 13:27N 29°42' W 094°60'0 0.0
2017-Dec-09 13:00N 29°42' W 094°60'0 0.0
2017-Dec-09 12:31N 29°42' W 094°60'0 0.0
2017-Dec-09 11:51N 29°42' W 094°60'0 0.0
2017-Dec-09 11:30N 29°42' W 094°60'0 0.0
2017-Dec-09 09:53N 29°42' W 094°60'0 0.0
2017-Dec-09 08:43N 29°42' W 094°60'0 0.0
2017-Dec-09 08:02N 29°42' W 094°60'0 0.0
2017-Dec-09 01:50N 29°42' W 094°60'0 0.0
2017-Dec-09 01:24N 29°42' W 094°60'1 2.9
2017-Dec-09 01:01N 29°41' W 094°59'1 2.3
2017-Dec-09 00:30N 29°42' W 094°60'0 0.0
2017-Dec-09 00:01N 29°42' W 094°60'0 0.0
2017-Dec-08 23:30N 29°42' W 094°60'0 0.0
2017-Dec-08 22:57N 29°42' W 094°60'0 0.0
2017-Dec-08 22:26N 29°42' W 094°60'0 0.0
2017-Dec-08 22:00N 29°42' W 094°60'0 0.0
2017-Dec-08 21:30N 29°42' W 094°60'0 0.0
2017-Dec-08 20:57N 29°42' W 094°60'0 0.0
2017-Dec-08 20:30N 29°42' W 094°60'0 0.0
2017-Dec-08 19:59N 29°42' W 094°60'0 0.7
2017-Dec-08 19:29N 29°42' W 095°00'0 0.0
2017-Dec-08 19:00N 29°42' W 095°00'0 0.0
2017-Dec-08 18:28N 29°42' W 095°00'0 0.5
2017-Dec-08 17:49N 29°42' W 095°00'0 0.2
2017-Dec-08 17:30N 29°42' W 094°60'0 0.0
2017-Dec-08 16:53N 29°42' W 094°60'0 0.0
2017-Dec-08 16:13N 29°42' W 094°60'0 0.0
2017-Dec-08 15:53N 29°42' W 094°60'0 0.0
2017-Dec-08 14:47N 29°42' W 094°60'0 0.0
2017-Dec-08 14:30N 29°42' W 094°60'1 2.5
2017-Dec-08 14:00N 29°41' W 094°59'1 1.5
2017-Dec-08 13:31N 29°42' W 094°59'1 0.6
2017-Dec-08 12:35N 29°42' W 094°60'0 0.1
2017-Dec-08 12:30N 29°42' W 094°60'0 0.0
2017-Dec-08 12:00N 29°42' W 094°60'0 0.0
2017-Dec-08 11:29N 29°42' W 094°60'0 0.0
2017-Dec-08 11:00N 29°42' W 094°60'0 0.0
2017-Dec-08 10:30N 29°42' W 094°60'0 0.0
2017-Dec-08 09:54N 29°42' W 094°60'0 0.0
2017-Dec-08 09:31N 29°42' W 094°60'0 0.0
2017-Dec-08 09:01N 29°42' W 094°60'0 0.0
2017-Dec-08 08:31N 29°42' W 094°60'0 0.0
2017-Dec-08 08:00N 29°42' W 094°60'0 0.0
2017-Dec-08 07:31N 29°42' W 094°60'0 0.0
2017-Dec-08 07:01N 29°42' W 094°60'0 0.0
2017-Dec-08 06:31N 29°42' W 094°60'0 0.0
2017-Dec-08 05:03N 29°42' W 094°60'0 0.0
2017-Dec-08 04:57N 29°42' W 094°60'0 0.0
2017-Dec-08 02:50N 29°42' W 094°60'0 0.0
2017-Dec-08 02:28N 29°42' W 094°60'0 0.0
2017-Dec-08 01:59N 29°42' W 094°60'0 0.1
2017-Dec-08 01:26N 29°42' W 094°60'0 0.0
2017-Dec-08 01:00N 29°42' W 094°60'0 0.0
2017-Dec-07 23:54N 29°42' W 094°60'0 0.1
2017-Dec-07 23:12N 29°42' W 094°60'0 0.0
2017-Dec-07 22:52N 29°42' W 094°60'0 0.2
2017-Dec-07 22:28N 29°42' W 094°60'0 0.0
2017-Dec-07 21:56N 29°42' W 094°60'0 0.0
2017-Dec-07 21:30N 29°42' W 094°60'0 0.0
2017-Dec-07 20:57N 29°42' W 094°60'0 0.0
2017-Dec-07 18:37N 29°42' W 094°60'0 0.1
2017-Dec-07 18:29N 29°42' W 094°60'0 0.1
2017-Dec-07 17:58N 29°42' W 094°60'0 0.0
2017-Dec-07 17:29N 29°42' W 094°60'0 0.0
2017-Dec-07 16:10N 29°42' W 094°60'0 0.0
2017-Dec-07 16:00N 29°42' W 094°60'0 0.7
2017-Dec-07 15:30N 29°42' W 094°60'1 1.8
2017-Dec-07 15:00N 29°41' W 094°59'0 0.0
2017-Dec-07 14:03N 29°41' W 094°59'0 1.4
2017-Dec-07 14:00N 29°41' W 094°59'1 1.4
2017-Dec-07 13:11N 29°42' W 094°60'0 0.0
2017-Dec-07 12:58N 29°42' W 094°60'  
Track history (hours):
 
Tides and Currents Weather Stations Pressure Air Temp Water Temp Dewpoint Dewpoint Depression Visibility Wind Speed Wind Dir Waves Ship Positions

Sea Lion

Owner: Garber Bros., Inc., Morgan City, LA. More information available from US FCC via Universal Licensing System and Coast Guard Vessel Documentation Center.

Last reported at 2017-Dec-17 00:21 UTC. Time now 2017-Dec-18 12:38 UTC.
Position N 29°33' W 090°55'.

Length 25 m; draft 3 m.

Type: Towing. MMSI: 367530470.

Date/timePositionNaut miles runAvg speedWind from/ knotsBaromVisibWave heightAir tempDewpointWater temp
2017-Dec-17 00:21N 29°33' W 090°55'4 8.3
2017-Dec-16 23:53N 29°32' W 090°50'3 8.5
2017-Dec-16 23:30N 29°32' W 090°47'3 6.7
2017-Dec-16 23:00N 29°34' W 090°43'3 5.3
2017-Dec-16 22:30N 29°37' W 090°43'4 6.9
2017-Dec-16 21:59N 29°35' W 090°39'3 6.9
2017-Dec-16 21:31N 29°35' W 090°35'4 7.9
2017-Dec-16 21:00N 29°34' W 090°30'0 0.0
2017-Dec-16 02:43N 29°34' W 090°31'2 8.0
2017-Dec-16 02:30N 29°34' W 090°32'3 6.7
2017-Dec-16 02:01N 29°35' W 090°36'4 7.4
2017-Dec-16 01:31N 29°36' W 090°40'2 4.6
2017-Dec-16 01:01N 29°36' W 090°43'2 3.3
2017-Dec-16 00:30N 29°34' W 090°43'1 2.6
2017-Dec-16 00:00N 29°33' W 090°42'0 0.0
2017-Dec-15 23:31N 29°33' W 090°42'0 0.0
2017-Dec-15 23:01N 29°33' W 090°42'0 0.0
2017-Dec-15 22:31N 29°33' W 090°42'0 0.0
2017-Dec-15 22:00N 29°33' W 090°42'0 0.0
2017-Dec-15 21:31N 29°33' W 090°42'0 0.0
2017-Dec-15 21:00N 29°33' W 090°42'0 0.0
2017-Dec-15 20:31N 29°33' W 090°42'0 0.0
2017-Dec-15 20:00N 29°33' W 090°42'0 0.0
2017-Dec-15 19:30N 29°33' W 090°42'0 0.0
2017-Dec-15 19:01N 29°33' W 090°42'0 0.0
2017-Dec-15 18:31N 29°33' W 090°42'0 0.0
2017-Dec-15 18:00N 29°33' W 090°42'0 0.0
2017-Dec-15 17:30N 29°33' W 090°42'0 0.0
2017-Dec-15 17:00N 29°33' W 090°42'0 0.0
2017-Dec-15 16:31N 29°33' W 090°42'0 0.0
2017-Dec-15 16:01N 29°33' W 090°42'0 0.0
2017-Dec-15 15:30N 29°33' W 090°42'0 0.0
2017-Dec-15 15:00N 29°33' W 090°42'0 0.0
2017-Dec-15 14:31N 29°33' W 090°42'0 0.0
2017-Dec-15 14:00N 29°33' W 090°42'0 0.0
2017-Dec-15 13:30N 29°33' W 090°42'0 0.0
2017-Dec-15 13:00N 29°33' W 090°42'0 0.0
2017-Dec-15 12:31N 29°33' W 090°42'0 0.0
2017-Dec-15 12:00N 29°33' W 090°42'0 0.0
2017-Dec-15 11:30N 29°33' W 090°42'0 0.0
2017-Dec-15 11:00N 29°33' W 090°42'0 0.0
2017-Dec-15 10:30N 29°33' W 090°42'0 0.0
2017-Dec-15 10:00N 29°33' W 090°42'0 0.0
2017-Dec-15 09:30N 29°33' W 090°42'0 0.1
2017-Dec-15 09:00N 29°33' W 090°42'2 3.6
2017-Dec-15 08:30N 29°34' W 090°44'3 6.8
2017-Dec-15 08:00N 29°32' W 090°47'4 7.8
2017-Dec-15 07:29N 29°32' W 090°52'37 6.8
2017-Dec-15 02:07N 29°42' W 091°32'11 7.3
2017-Dec-15 00:33N 29°46' W 091°45'71 7.0
2017-Dec-14 14:25N 29°56' W 093°05'3 7.2
2017-Dec-14 14:00N 29°56' W 093°09'3 6.5
2017-Dec-14 13:29N 29°58' W 093°12'3 6.6
2017-Dec-14 13:00N 30°01' W 093°14'3 6.4
2017-Dec-14 12:30N 30°04' W 093°16'2 4.5
2017-Dec-14 12:00N 30°05' W 093°18'0 0.6
2017-Dec-14 11:30N 30°05' W 093°18'0 1.0
2017-Dec-14 11:00N 30°06' W 093°18'0 0.1
2017-Dec-14 10:30N 30°06' W 093°18'0 0.2
2017-Dec-14 09:48N 30°06' W 093°18'0 0.0
2017-Dec-14 09:30N 30°06' W 093°18'0 0.0
2017-Dec-14 09:00N 30°06' W 093°18'0 0.0
2017-Dec-14 08:30N 30°06' W 093°18'0 0.0
2017-Dec-14 08:00N 30°06' W 093°18'0 0.0
2017-Dec-14 07:30N 30°06' W 093°18'2 3.2
2017-Dec-14 06:59N 30°05' W 093°20'2 3.6
2017-Dec-14 06:30N 30°04' W 093°21'3 6.2
2017-Dec-14 06:00N 30°04' W 093°25'3 7.0
2017-Dec-14 05:30N 30°04' W 093°29'3 7.0
2017-Dec-14 05:00N 30°04' W 093°33'4 7.0
2017-Dec-14 04:30N 30°04' W 093°37'8 6.4
2017-Dec-14 03:15N 30°01' W 093°46'66 5.9
2017-Dec-13 16:11N 29°31' W 094°53'1 7.4
2017-Dec-13 15:59N 29°32' W 094°54'4 7.2
2017-Dec-13 15:30N 29°35' W 094°56'4 7.1
2017-Dec-13 15:00N 29°38' W 094°58'3 5.5
2017-Dec-13 14:29N 29°41' W 094°59'0 0.0
2017-Dec-13 13:42N 29°41' W 094°59'0 0.0
2017-Dec-13 13:22N 29°41' W 094°59'0 0.0
2017-Dec-13 12:05N 29°41' W 094°59'0 0.0
2017-Dec-13 11:55N 29°41' W 094°59'0 0.0
2017-Dec-13 10:46N 29°41' W 094°59'2 6.8
2017-Dec-13 10:30N 29°39' W 094°58'5 8.5
2017-Dec-13 09:52N 29°34' W 094°56'4 0.9
2017-Dec-13 05:11N 29°31' W 094°53'1 5.4
2017-Dec-13 05:01N 29°32' W 094°54'3 5.4
2017-Dec-13 04:30N 29°34' W 094°55'3 5.2
2017-Dec-13 03:59N 29°36' W 094°57'3 5.3
2017-Dec-13 03:31N 29°39' W 094°58'3 5.2
2017-Dec-13 03:00N 29°41' W 094°59'1 0.7
2017-Dec-13 01:18N 29°42' W 094°60'0 0.0
2017-Dec-13 00:23N 29°42' W 094°60'0 0.0
2017-Dec-12 23:58N 29°42' W 094°60'0 0.1
2017-Dec-12 23:00N 29°42' W 094°60'0 0.1
2017-Dec-12 22:30N 29°42' W 094°60'0 0.0
2017-Dec-12 21:55N 29°42' W 094°60'0 0.0
2017-Dec-12 20:04N 29°42' W 094°60'0 0.1
2017-Dec-12 19:42N 29°42' W 094°60'0 0.0
2017-Dec-12 19:26N 29°42' W 094°60'0 1.0
2017-Dec-12 18:59N 29°42' W 095°00'0 0.1
2017-Dec-12 18:30N 29°42' W 095°00'0 0.0
2017-Dec-12 17:37N 29°42' W 095°00'0 0.0
2017-Dec-12 17:26N 29°42' W 095°00'0 0.0
2017-Dec-12 17:00N 29°42' W 095°00'1 1.1
2017-Dec-12 16:19N 29°42' W 094°60'1 2.6
2017-Dec-12 15:59N 29°41' W 094°59'0 0.0
2017-Dec-12 15:29N 29°41' W 094°59'0 0.0
2017-Dec-12 15:00N 29°41' W 094°59'1 0.3
2017-Dec-12 11:20N 29°42' W 094°60'0 0.0
2017-Dec-12 10:28N 29°42' W 094°60'0 0.0
2017-Dec-12 09:51N 29°42' W 094°60'0 0.0
2017-Dec-12 09:29N 29°42' W 094°60'0 0.0
2017-Dec-12 08:58N 29°42' W 094°60'0 0.0
2017-Dec-12 08:30N 29°42' W 094°60'0 0.0
2017-Dec-12 08:00N 29°42' W 094°60'0 0.0
2017-Dec-12 07:28N 29°42' W 094°60'0 0.5
2017-Dec-12 07:00N 29°42' W 095°00'2 0.3
2017-Dec-12 00:11N 29°42' W 095°03'0 0.5
2017-Dec-12 00:00N 29°42' W 095°03'3 3.5
2017-Dec-11 23:16N 29°42' W 094°60'0 0.0
2017-Dec-11 23:01N 29°42' W 094°60'0 0.1
2017-Dec-11 19:55N 29°42' W 095°00'0 0.0
2017-Dec-11 16:02N 29°42' W 095°00'0 0.3
2017-Dec-11 15:04N 29°42' W 095°00'0 0.3
2017-Dec-11 14:58N 29°42' W 094°60'0 0.1
2017-Dec-11 14:30N 29°42' W 094°60'0 0.1
2017-Dec-11 13:59N 29°42' W 095°00'0 0.0
2017-Dec-11 13:20N 29°42' W 094°60'0 0.0
2017-Dec-11 13:00N 29°42' W 094°60'0 0.0
2017-Dec-11 12:29N 29°42' W 094°60'0 0.7
2017-Dec-11 11:57N 29°42' W 095°00'0 0.0
2017-Dec-11 11:27N 29°42' W 095°00'0 0.0
2017-Dec-11 10:59N 29°42' W 095°00'0 0.0
2017-Dec-11 10:30N 29°42' W 095°00'0 0.0
2017-Dec-11 09:55N 29°42' W 095°00'0 0.0
2017-Dec-11 09:29N 29°42' W 095°00'0 0.0
2017-Dec-11 09:00N 29°42' W 095°00'0 0.0
2017-Dec-11 08:29N 29°42' W 095°00'0 0.0
2017-Dec-11 08:00N 29°42' W 095°00'0 0.0
2017-Dec-11 06:44N 29°42' W 095°00'0 0.0
2017-Dec-11 06:15N 29°42' W 095°00'0 0.0
2017-Dec-11 05:44N 29°42' W 095°00'0 0.0
2017-Dec-10 22:35N 29°42' W 095°00'0 4.8
2017-Dec-10 22:30N 29°42' W 094°60'1 1.9
2017-Dec-10 22:00N 29°41' W 094°59'3 6.1
2017-Dec-10 21:31N 29°38' W 094°58'0 1.0
2017-Dec-10 21:01N 29°38' W 094°58'1 1.4
2017-Dec-10 20:30N 29°38' W 094°58'3 6.7
2017-Dec-10 20:01N 29°41' W 094°59'1 0.5
2017-Dec-10 18:25N 29°42' W 094°60'0 0.0
2017-Dec-10 17:52N 29°42' W 094°60'0 0.0
2017-Dec-10 17:13N 29°42' W 094°60'0 0.0
2017-Dec-10 17:00N 29°42' W 094°60'0 0.0
2017-Dec-10 16:30N 29°42' W 094°60'0 0.0
2017-Dec-10 15:58N 29°42' W 094°60'0 0.0
2017-Dec-10 15:29N 29°42' W 094°60'0 0.0
2017-Dec-10 15:00N 29°42' W 094°60'1 0.9
2017-Dec-10 13:40N 29°41' W 094°59'0 0.0
2017-Dec-10 13:16N 29°41' W 094°59'0 0.0
2017-Dec-10 12:59N 29°41' W 094°59'1 2.5
2017-Dec-10 12:29N 29°42' W 094°60'0 0.1
2017-Dec-10 12:00N 29°42' W 094°60'0 0.0
2017-Dec-10 11:31N 29°42' W 094°60'0 0.0
2017-Dec-10 10:57N 29°42' W 094°60'0 0.0
2017-Dec-10 10:28N 29°42' W 094°60'0 0.0
2017-Dec-10 10:00N 29°42' W 094°60'0 0.0
2017-Dec-10 09:31N 29°42' W 094°60'0 0.0
2017-Dec-10 08:49N 29°42' W 094°60'0 0.0
2017-Dec-10 08:27N 29°42' W 094°60'0 0.0
2017-Dec-10 07:57N 29°42' W 094°60'0 0.0
2017-Dec-10 07:30N 29°42' W 094°60'0 0.0
2017-Dec-10 06:57N 29°42' W 094°60'0 0.0
2017-Dec-10 06:28N 29°42' W 094°60'0 0.0
2017-Dec-10 05:02N 29°42' W 094°60'0 0.0
2017-Dec-10 04:52N 29°42' W 094°60'0 0.0
2017-Dec-10 04:30N 29°42' W 094°60'0 0.0
2017-Dec-10 03:57N 29°42' W 094°60'0 0.0
2017-Dec-10 03:30N 29°42' W 094°60'0 0.0
2017-Dec-10 03:00N 29°42' W 094°60'0 0.0
2017-Dec-10 02:19N 29°42' W 094°60'0 0.0
2017-Dec-10 01:29N 29°42' W 094°60'0 0.0
2017-Dec-10 00:55N 29°42' W 094°60'0 0.0
2017-Dec-10 00:30N 29°42' W 094°60'0 0.0
2017-Dec-10 00:00N 29°42' W 094°60'0 0.0
2017-Dec-09 23:29N 29°42' W 094°60'0 0.5
2017-Dec-09 22:43N 29°42' W 095°00'0 1.3
2017-Dec-09 22:27N 29°42' W 094°60'0 0.0
2017-Dec-09 21:53N 29°42' W 094°60'0 0.0
2017-Dec-09 20:49N 29°42' W 094°60'0 0.0
2017-Dec-09 19:52N 29°42' W 094°60'0 0.0
2017-Dec-09 19:30N 29°42' W 094°60'0 0.0
2017-Dec-09 18:54N 29°42' W 094°60'0 0.0
2017-Dec-09 18:17N 29°42' W 094°60'0 0.0
2017-Dec-09 17:46N 29°42' W 094°60'0 0.0
2017-Dec-09 17:28N 29°42' W 094°60'0 0.0
2017-Dec-09 17:01N 29°42' W 094°60'0 0.0
2017-Dec-09 16:30N 29°42' W 094°60'0 0.0
2017-Dec-09 16:00N 29°42' W 094°60'0 0.0
2017-Dec-09 15:24N 29°42' W 094°60'0 0.0
2017-Dec-09 15:00N 29°42' W 094°60'0 0.0
2017-Dec-09 14:31N 29°42' W 094°60'0 0.0
2017-Dec-09 13:58N 29°42' W 094°60'0 0.0
2017-Dec-09 13:27N 29°42' W 094°60'0 0.0
2017-Dec-09 13:00N 29°42' W 094°60'0 0.0
2017-Dec-09 12:31N 29°42' W 094°60'0 0.0
2017-Dec-09 11:51N 29°42' W 094°60'0 0.0
2017-Dec-09 11:30N 29°42' W 094°60'0 0.0
2017-Dec-09 09:53N 29°42' W 094°60'0 0.0
2017-Dec-09 08:43N 29°42' W 094°60'0 0.0
2017-Dec-09 08:02N 29°42' W 094°60'0 0.0
2017-Dec-09 01:50N 29°42' W 094°60'0 0.0
2017-Dec-09 01:24N 29°42' W 094°60'1 2.9
2017-Dec-09 01:01N 29°41' W 094°59'1 2.3
2017-Dec-09 00:30N 29°42' W 094°60'0 0.0
2017-Dec-09 00:01N 29°42' W 094°60'0 0.0
2017-Dec-08 23:30N 29°42' W 094°60'0 0.0
2017-Dec-08 22:57N 29°42' W 094°60'0 0.0
2017-Dec-08 22:26N 29°42' W 094°60'0 0.0
2017-Dec-08 22:00N 29°42' W 094°60'0 0.0
2017-Dec-08 21:30N 29°42' W 094°60'0 0.0
2017-Dec-08 20:57N 29°42' W 094°60'0 0.0
2017-Dec-08 20:30N 29°42' W 094°60'0 0.0
2017-Dec-08 19:59N 29°42' W 094°60'0 0.7
2017-Dec-08 19:29N 29°42' W 095°00'0 0.0
2017-Dec-08 19:00N 29°42' W 095°00'0 0.0
2017-Dec-08 18:28N 29°42' W 095°00'0 0.5
2017-Dec-08 17:49N 29°42' W 095°00'0 0.2
2017-Dec-08 17:30N 29°42' W 094°60'0 0.0
2017-Dec-08 16:53N 29°42' W 094°60'0 0.0
2017-Dec-08 16:13N 29°42' W 094°60'0 0.0
2017-Dec-08 15:53N 29°42' W 094°60'0 0.0
2017-Dec-08 14:47N 29°42' W 094°60'0 0.0
2017-Dec-08 14:30N 29°42' W 094°60'1 2.5
2017-Dec-08 14:00N 29°41' W 094°59'1 1.5
2017-Dec-08 13:31N 29°42' W 094°59'1 0.6
2017-Dec-08 12:35N 29°42' W 094°60'0 0.1
2017-Dec-08 12:30N 29°42' W 094°60'0 0.0
2017-Dec-08 12:00N 29°42' W 094°60'0 0.0
2017-Dec-08 11:29N 29°42' W 094°60'0 0.0
2017-Dec-08 11:00N 29°42' W 094°60'0 0.0
2017-Dec-08 10:30N 29°42' W 094°60'0 0.0
2017-Dec-08 09:54N 29°42' W 094°60'0 0.0
2017-Dec-08 09:31N 29°42' W 094°60'0 0.0
2017-Dec-08 09:01N 29°42' W 094°60'0 0.0
2017-Dec-08 08:31N 29°42' W 094°60'0 0.0
2017-Dec-08 08:00N 29°42' W 094°60'0 0.0
2017-Dec-08 07:31N 29°42' W 094°60'0 0.0
2017-Dec-08 07:01N 29°42' W 094°60'0 0.0
2017-Dec-08 06:31N 29°42' W 094°60'0 0.0
2017-Dec-08 05:03N 29°42' W 094°60'0 0.0
2017-Dec-08 04:57N 29°42' W 094°60'0 0.0
2017-Dec-08 02:50N 29°42' W 094°60'0 0.0
2017-Dec-08 02:28N 29°42' W 094°60'0 0.0
2017-Dec-08 01:59N 29°42' W 094°60'0 0.1
2017-Dec-08 01:26N 29°42' W 094°60'0 0.0
2017-Dec-08 01:00N 29°42' W 094°60'0 0.0
2017-Dec-07 23:54N 29°42' W 094°60'0 0.1
2017-Dec-07 23:12N 29°42' W 094°60'0 0.0
2017-Dec-07 22:52N 29°42' W 094°60'0 0.2
2017-Dec-07 22:28N 29°42' W 094°60'0 0.0
2017-Dec-07 21:56N 29°42' W 094°60'0 0.0
2017-Dec-07 21:30N 29°42' W 094°60'0 0.0
2017-Dec-07 20:57N 29°42' W 094°60'0 0.0
2017-Dec-07 18:37N 29°42' W 094°60'0 0.1
2017-Dec-07 18:29N 29°42' W 094°60'0 0.1
2017-Dec-07 17:58N 29°42' W 094°60'0 0.0
2017-Dec-07 17:29N 29°42' W 094°60'0 0.0
2017-Dec-07 16:10N 29°42' W 094°60'0 0.0
2017-Dec-07 16:00N 29°42' W 094°60'0 0.7
2017-Dec-07 15:30N 29°42' W 094°60'1 1.8
2017-Dec-07 15:00N 29°41' W 094°59'0 0.0
2017-Dec-07 14:03N 29°41' W 094°59'0 1.4
2017-Dec-07 14:00N 29°41' W 094°59'1 1.4
2017-Dec-07 13:11N 29°42' W 094°60'0 0.0
2017-Dec-07 12:58N 29°42' W 094°60'  

Dump ship's entire track history